Time;durP1;ratioP1;P1;durP2;ratioP2;P2;SDS_P1;SDS_P2;PMS_P1;PMS_P2;Temp;Humidity;BMP_temperature;BMP_pressure;BME280_temperature;BME280_humidity;BME280_pressure;Samples;Min_cycle;Max_cycle;Signal;HPM_P1;HPM_P2
2022/10/03 00:01:47;;;;;;;9.90;4.60;;;12.30;39.50;;;;;;5042568;28;20482;-61
2022/10/03 00:04:36;;;;;;;7.10;4.90;;;12.20;39.60;;;;;;5042343;28;21259;-61
2022/10/03 00:07:11;;;;;;;6.73;4.13;;;12.20;39.50;;;;;;5044641;28;20466;-61
2022/10/03 00:09:55;;;;;;;7.67;4.57;;;12.10;39.50;;;;;;5047021;28;20997;-61
2022/10/03 00:12:46;;;;;;;8.23;4.20;;;12.00;39.30;;;;;;5046104;28;20450;-61
2022/10/03 00:15:20;;;;;;;8.63;5.10;;;11.90;39.30;;;;;;5046861;28;20517;-61
2022/10/03 00:17:54;;;;;;;10.23;5.30;;;11.90;39.20;;;;;;5041236;28;20495;-61
2022/10/03 00:20:46;;;;;;;8.67;5.20;;;11.80;39.30;;;;;;5039856;28;20501;-61
2022/10/03 00:23:18;;;;;;;9.70;4.90;;;11.80;39.50;;;;;;5035682;28;21098;-61
2022/10/03 00:25:52;;;;;;;7.20;5.00;;;11.70;39.30;;;;;;5043023;28;20489;-61
2022/10/03 00:28:42;;;;;;;8.93;5.53;;;11.70;39.30;;;;;;5044282;28;20459;-61
2022/10/03 00:31:13;;;;;;;10.63;5.37;;;11.70;40.00;;;;;;5047396;28;20704;-61
2022/10/03 00:33:57;;;;;;;9.07;5.40;;;11.60;39.20;;;;;;5042297;28;20532;-60
2022/10/03 00:36:30;;;;;;;8.40;5.50;;;11.50;39.40;;;;;;5038368;28;20469;-61
2022/10/03 00:39:23;;;;;;;10.90;6.20;;;11.50;39.40;;;;;;5038144;28;20490;-61
2022/10/03 00:42:19;;;;;;;8.40;4.90;;;11.50;39.60;;;;;;5043119;28;20993;-61
2022/10/03 00:45:32;;;;;;;10.23;5.53;;;11.40;39.60;;;;;;5037051;28;20471;-61
2022/10/03 00:48:22;;;;;;;9.10;5.70;;;11.30;39.70;;;;;;5046019;28;20459;-61
2022/10/03 00:51:24;;;;;;;9.33;5.10;;;11.20;39.50;;;;;;5047549;28;20454;-61
2022/10/03 00:54:01;;;;;;;10.70;5.80;;;11.20;39.70;;;;;;5036270;28;20462;-61
2022/10/03 00:56:44;;;;;;;10.30;5.47;;;11.10;39.60;;;;;;5043348;28;20971;-61
2022/10/03 00:59:26;;;;;;;8.30;5.27;;;11.00;39.70;;;;;;5037302;28;21005;-61
2022/10/03 01:01:54;;;;;;;10.93;5.43;;;10.90;39.80;;;;;;5042186;28;20477;-61
2022/10/03 01:04:43;;;;;;;11.00;5.93;;;10.80;39.70;;;;;;5045485;28;20474;-61
2022/10/03 01:07:27;;;;;;;12.00;6.70;;;10.70;40.00;;;;;;5044517;28;20836;-61
2022/10/03 01:10:04;;;;;;;11.03;6.60;;;10.70;40.30;;;;;;5034606;28;20478;-61
2022/10/03 01:13:08;;;;;;;12.63;6.00;;;10.60;40.30;;;;;;5043242;28;20465;-62
2022/10/03 01:15:46;;;;;;;15.47;7.00;;;10.60;40.80;;;;;;5040301;28;20461;-60
2022/10/03 01:18:27;;;;;;;10.03;6.67;;;10.60;40.90;;;;;;5054923;28;20465;-61
2022/10/03 01:21:03;;;;;;;10.37;6.53;;;10.60;41.10;;;;;;5044328;28;20453;-61
2022/10/03 01:24:10;;;;;;;11.70;5.90;;;10.50;40.90;;;;;;5040659;28;20469;-61
2022/10/03 01:26:54;;;;;;;11.97;7.37;;;10.50;41.30;;;;;;5043289;28;20462;-61
2022/10/03 01:32:33;;;;;;;10.77;6.90;;;10.50;41.00;;;;;;5037500;28;20503;-61
2022/10/03 01:35:10;;;;;;;9.33;5.77;;;10.50;41.00;;;;;;5047063;28;20454;-61
2022/10/03 01:37:45;;;;;;;14.20;7.63;;;10.40;41.10;;;;;;5042404;28;20477;-61
2022/10/03 01:40:24;;;;;;;14.57;7.67;;;10.40;41.10;;;;;;5044511;28;20486;-61
2022/10/03 01:43:05;;;;;;;15.93;8.13;;;10.40;41.30;;;;;;5034421;28;20958;-62
2022/10/03 01:45:46;;;;;;;11.93;6.80;;;10.40;41.50;;;;;;5041128;28;20498;-61
2022/10/03 01:48:21;;;;;;;12.87;7.17;;;10.40;41.50;;;;;;5040435;28;20488;-61
2022/10/03 01:50:57;;;;;;;11.23;7.00;;;10.40;41.50;;;;;;5041432;28;20874;-61
2022/10/03 01:53:33;;;;;;;16.80;8.40;;;10.40;41.40;;;;;;5041697;28;20469;-61
2022/10/03 01:56:07;;;;;;;11.63;7.50;;;10.40;41.50;;;;;;5043539;28;20453;-61
2022/10/03 01:58:48;;;;;;;9.23;6.00;;;10.40;41.50;;;;;;5039916;28;20465;-61
2022/10/03 02:01:24;;;;;;;12.27;7.50;;;10.30;41.80;;;;;;5037008;28;20501;-61
2022/10/03 02:04:03;;;;;;;12.23;8.60;;;10.30;41.60;;;;;;5038931;28;20466;-61
2022/10/03 02:06:42;;;;;;;14.70;9.03;;;10.30;41.80;;;;;;5037692;28;20535;-61
2022/10/03 02:09:17;;;;;;;16.27;8.73;;;10.30;42.00;;;;;;5039516;28;20515;-61
2022/10/03 02:12:02;;;;;;;12.90;8.67;;;10.30;41.90;;;;;;5041338;28;20454;-60
2022/10/03 02:14:40;;;;;;;14.17;8.17;;;10.30;42.20;;;;;;5039190;28;20545;-61
2022/10/03 02:17:21;;;;;;;15.80;8.63;;;10.30;42.10;;;;;;5037448;28;20477;-61
2022/10/03 02:19:57;;;;;;;11.53;8.00;;;10.30;42.20;;;;;;5042998;28;20470;-61
2022/10/03 02:22:42;;;;;;;13.73;7.73;;;10.30;42.10;;;;;;5042672;28;20465;-61
2022/10/03 02:25:30;;;;;;;12.13;7.83;;;10.20;42.00;;;;;;5043189;28;21059;-61
2022/10/03 02:28:34;;;;;;;12.13;7.93;;;10.20;41.90;;;;;;5037072;28;20461;-61
2022/10/03 02:31:37;;;;;;;11.27;7.70;;;10.20;42.00;;;;;;5041212;28;20470;-61
2022/10/03 02:34:32;;;;;;;12.07;7.20;;;10.20;42.00;;;;;;5041360;28;20549;-61
2022/10/03 02:37:47;;;;;;;11.53;6.50;;;10.20;41.80;;;;;;5038799;28;20461;-61
2022/10/03 02:40:55;;;;;;;13.17;7.97;;;10.10;41.80;;;;;;4998561;28;20569;-61
2022/10/03 02:44:01;;;;;;;14.17;7.87;;;10.10;41.90;;;;;;5039453;28;21008;-61
2022/10/03 02:47:07;;;;;;;14.20;9.73;;;10.10;41.80;;;;;;5042209;28;20474;-61
2022/10/03 02:50:13;;;;;;;17.57;9.10;;;10.10;41.80;;;;;;5044677;28;20900;-61
2022/10/03 02:53:14;;;;;;;16.70;9.57;;;10.10;42.00;;;;;;5038906;28;20540;-61
2022/10/03 02:56:11;;;;;;;15.00;8.80;;;10.10;42.00;;;;;;5040775;28;21208;-61
2022/10/03 02:59:05;;;;;;;17.30;10.17;;;10.10;42.00;;;;;;5035055;28;20485;-60
2022/10/03 03:01:59;;;;;;;14.17;8.30;;;10.10;42.00;;;;;;5035012;28;20906;-61
2022/10/03 03:05:15;;;;;;;12.93;7.83;;;10.10;42.10;;;;;;5036146;28;20459;-61
2022/10/03 03:08:11;;;;;;;14.40;7.20;;;10.10;42.20;;;;;;5038595;28;20463;-61
2022/10/03 03:11:05;;;;;;;12.03;7.40;;;10.00;41.90;;;;;;5039112;28;20473;-61
2022/10/03 03:14:08;;;;;;;11.40;7.50;;;10.00;42.00;;;;;;5048327;28;20467;-61
2022/10/03 03:16:49;;;;;;;11.27;7.10;;;10.00;42.20;;;;;;5041366;28;20449;-61
2022/10/03 03:19:34;;;;;;;10.47;6.80;;;10.00;42.00;;;;;;5042581;28;20483;-61
2022/10/03 03:22:09;;;;;;;12.57;7.70;;;9.90;42.10;;;;;;5042020;28;20806;-62
2022/10/03 03:24:52;;;;;;;12.93;7.67;;;9.90;41.80;;;;;;5046519;28;20454;-61
2022/10/03 03:27:29;;;;;;;13.03;7.40;;;9.90;42.00;;;;;;5039576;28;20992;-61
2022/10/03 03:30:05;;;;;;;13.03;7.33;;;9.80;41.90;;;;;;5039230;28;20474;-60
2022/10/03 03:32:41;;;;;;;12.73;9.17;;;9.80;42.00;;;;;;5046331;28;20488;-61
2022/10/03 03:35:22;;;;;;;14.47;7.47;;;9.80;42.20;;;;;;5041905;28;20449;-61
2022/10/03 03:37:56;;;;;;;14.77;7.63;;;9.80;42.40;;;;;;5048068;28;20700;-61
2022/10/03 03:40:39;;;;;;;12.63;7.53;;;9.80;42.30;;;;;;5040393;28;21070;-61
2022/10/03 03:43:36;;;;;;;11.63;7.30;;;9.70;42.50;;;;;;5045151;28;20462;-60
2022/10/03 03:46:21;;;;;;;13.07;7.67;;;9.70;42.60;;;;;;5041546;28;21059;-60
2022/10/03 03:49:02;;;;;;;12.37;7.47;;;9.70;42.40;;;;;;5044074;28;20485;-61
2022/10/03 03:51:35;;;;;;;13.87;8.03;;;9.70;42.50;;;;;;5044283;28;20453;-60
2022/10/03 03:54:33;;;;;;;13.30;7.90;;;9.60;42.30;;;;;;5044357;28;20458;-61
2022/10/03 03:57:20;;;;;;;17.63;9.10;;;9.60;42.70;;;;;;5040196;28;20477;-61
2022/10/03 04:00:07;;;;;;;16.20;9.50;;;9.60;42.80;;;;;;5043302;28;21063;-60
2022/10/03 04:02:46;;;;;;;17.47;10.67;;;9.60;43.00;;;;;;5034375;28;20485;-62
2022/10/03 04:05:30;;;;;;;16.07;10.00;;;9.60;43.00;;;;;;5045442;28;20492;-62
2022/10/03 04:08:13;;;;;;;15.47;9.93;;;9.60;42.90;;;;;;5035441;28;20463;-61
2022/10/03 04:10:53;;;;;;;15.93;9.43;;;9.60;42.80;;;;;;5044168;28;20480;-61
2022/10/03 04:14:02;;;;;;;13.60;8.33;;;9.60;42.90;;;;;;5040531;28;20454;-61
2022/10/03 04:19:39;;;;;;;12.70;8.33;;;9.50;42.80;;;;;;5046067;28;20963;-61
2022/10/03 04:22:21;;;;;;;12.57;8.63;;;9.40;42.50;;;;;;5046607;28;20826;-62
2022/10/03 04:25:19;;;;;;;12.07;8.00;;;9.40;42.50;;;;;;5041345;28;20977;-61
2022/10/03 04:28:27;;;;;;;15.40;7.03;;;9.40;42.80;;;;;;5035332;28;20582;-62
2022/10/03 04:31:07;;;;;;;12.80;7.83;;;9.40;42.70;;;;;;5026988;28;20478;-61
2022/10/03 04:33:50;;;;;;;14.37;8.73;;;9.30;42.30;;;;;;5034465;28;21053;-61
2022/10/03 04:36:49;;;;;;;12.67;7.43;;;9.30;42.30;;;;;;5042535;28;20985;-62
2022/10/03 04:39:26;;;;;;;12.90;8.50;;;9.30;42.60;;;;;;5020078;28;21021;-61
2022/10/03 04:41:56;;;;;;;14.17;8.43;;;9.20;42.30;;;;;;5041648;28;20457;-61
2022/10/03 04:44:44;;;;;;;11.57;7.17;;;9.20;42.30;;;;;;5042209;28;20867;-61
2022/10/03 04:47:21;;;;;;;15.20;7.53;;;9.20;42.60;;;;;;5044120;28;20482;-61
2022/10/03 04:49:56;;;;;;;10.60;6.10;;;9.10;42.30;;;;;;5042353;28;20483;-62
2022/10/03 04:52:32;;;;;;;10.10;6.30;;;9.10;42.30;;;;;;5041111;28;20820;-61
2022/10/03 04:55:05;;;;;;;8.20;5.00;;;9.10;42.10;;;;;;5039524;28;20458;-61
2022/10/03 04:57:42;;;;;;;8.07;4.97;;;9.10;41.90;;;;;;5039448;28;20458;-62
2022/10/03 05:00:23;;;;;;;9.77;5.70;;;9.10;41.90;;;;;;5042954;28;20482;-62
2022/10/03 05:02:58;;;;;;;10.63;7.00;;;9.00;41.80;;;;;;5040614;28;20467;-62
2022/10/03 05:05:53;;;;;;;13.03;7.50;;;9.00;41.60;;;;;;5039929;28;20531;-61
2022/10/03 05:08:31;;;;;;;13.87;6.47;;;9.00;42.00;;;;;;5031499;28;20451;-61
2022/10/03 05:11:09;;;;;;;10.50;6.93;;;8.90;42.50;;;;;;5050679;28;20466;-62
2022/10/03 05:13:49;;;;;;;9.97;5.80;;;8.90;41.80;;;;;;5038218;28;20951;-61
2022/10/03 05:16:23;;;;;;;10.73;5.80;;;8.90;41.80;;;;;;5042402;28;20464;-62
2022/10/03 05:18:55;;;;;;;33.50;7.00;;;8.90;41.70;;;;;;5039822;28;20487;-61
2022/10/03 05:21:33;;;;;;;37.40;7.40;;;8.80;41.70;;;;;;5044613;28;20462;-61
2022/10/03 05:24:14;;;;;;;30.40;6.13;;;8.80;42.00;;;;;;5041632;28;20461;-61
2022/10/03 05:26:46;;;;;;;13.53;6.10;;;8.70;42.30;;;;;;5037915;28;20483;-62
2022/10/03 05:29:24;;;;;;;10.47;5.97;;;8.60;42.40;;;;;;5045102;28;21053;-61
2022/10/03 05:32:06;;;;;;;17.60;7.80;;;8.70;42.70;;;;;;5039596;28;20569;-61
2022/10/03 05:34:52;;;;;;;10.40;6.17;;;8.70;42.80;;;;;;5042802;28;20470;-62
2022/10/03 05:37:45;;;;;;;12.20;6.63;;;8.60;42.80;;;;;;5040437;28;21031;-62
2022/10/03 05:40:18;;;;;;;15.30;6.97;;;8.60;42.90;;;;;;5037935;28;20495;-61
2022/10/03 05:43:18;;;;;;;22.00;12.27;;;8.70;42.90;;;;;;5043003;28;20458;-62
2022/10/03 05:45:52;;;;;;;10.07;5.90;;;8.70;43.20;;;;;;5033030;28;20486;-61
2022/10/03 05:48:33;;;;;;;10.20;6.60;;;8.80;43.40;;;;;;5044581;28;20465;-61
2022/10/03 05:51:20;;;;;;;9.67;5.97;;;9.00;43.70;;;;;;5039250;28;20477;-61
2022/10/03 05:54:20;;;;;;;9.23;5.63;;;9.10;44.50;;;;;;5040266;28;20462;-62
2022/10/03 05:57:12;;;;;;;9.07;4.90;;;9.30;45.10;;;;;;5039157;28;20450;-62
2022/10/03 06:00:01;;;;;;;8.40;5.00;;;9.60;44.00;;;;;;5036385;28;20489;-62
2022/10/03 06:02:57;;;;;;;8.60;5.30;;;10.10;42.40;;;;;;5040263;28;20478;-62
2022/10/03 06:05:31;;;;;;;9.63;5.40;;;10.60;40.60;;;;;;5009652;28;20453;-62
2022/10/03 06:08:24;;;;;;;15.57;5.30;;;11.30;38.50;;;;;;5038562;28;20473;-62
2022/10/03 06:10:58;;;;;;;17.00;5.27;;;11.80;36.80;;;;;;5037146;28;20467;-61
2022/10/03 06:13:41;;;;;;;10.47;4.80;;;12.20;35.20;;;;;;5042799;28;20473;-61
2022/10/03 06:16:25;;;;;;;8.67;4.80;;;12.60;34.20;;;;;;5035339;28;20977;-62
2022/10/03 06:19:16;;;;;;;7.00;4.00;;;12.90;32.50;;;;;;5037536;28;20481;-62
2022/10/03 06:22:22;;;;;;;6.30;3.90;;;13.30;31.80;;;;;;5038468;28;20470;-62
2022/10/03 06:25:20;;;;;;;6.80;4.20;;;13.70;30.70;;;;;;5034100;28;20465;-61
2022/10/03 06:28:33;;;;;;;7.60;5.10;;;13.90;29.90;;;;;;5040995;28;20564;-62
2022/10/03 06:31:33;;;;;;;6.90;4.00;;;14.10;29.80;;;;;;5041153;28;20560;-62
2022/10/03 06:34:24;;;;;;;6.50;4.13;;;14.20;29.00;;;;;;5003329;28;20465;-62
2022/10/03 06:37:08;;;;;;;6.93;4.33;;;14.30;28.90;;;;;;5029302;28;20463;-61
2022/10/03 06:40:15;;;;;;;6.47;4.50;;;14.50;28.90;;;;;;5034168;28;20498;-62
2022/10/03 06:43:01;;;;;;;7.53;4.90;;;14.80;28.90;;;;;;5038932;28;20458;-62
2022/10/03 06:45:55;;;;;;;7.93;5.20;;;15.10;28.10;;;;;;5039133;28;20461;-62
2022/10/03 06:48:47;;;;;;;8.00;4.97;;;15.30;27.80;;;;;;5044780;28;20861;-62
2022/10/03 06:51:46;;;;;;;8.20;5.13;;;15.70;26.20;;;;;;5036877;28;20461;-62
2022/10/03 06:54:34;;;;;;;7.50;5.07;;;16.30;24.10;;;;;;5038796;28;20535;-62
2022/10/03 06:57:18;;;;;;;8.47;5.57;;;17.00;22.10;;;;;;5037908;28;20529;-62
2022/10/03 07:00:01;;;;;;;9.10;5.57;;;17.40;20.80;;;;;;5033895;28;20471;-62
2022/10/03 07:02:58;;;;;;;7.80;4.60;;;17.60;19.40;;;;;;5040499;28;20478;-63
2022/10/03 07:06:08;;;;;;;8.47;5.50;;;17.90;19.20;;;;;;5007928;28;20533;-62
2022/10/03 07:09:04;;;;;;;10.97;5.70;;;18.40;18.10;;;;;;5033147;28;20897;-62
2022/10/03 07:11:48;;;;;;;8.63;5.67;;;19.40;16.00;;;;;;5041277;28;20466;-62
2022/10/03 07:14:44;;;;;;;11.33;8.07;;;20.70;13.90;;;;;;5042526;28;20453;-63
2022/10/03 07:17:32;;;;;;;7.80;5.40;;;21.80;12.00;;;;;;5038641;28;20462;-62
2022/10/03 07:20:26;;;;;;;8.20;5.93;;;23.00;10.10;;;;;;5035683;28;20482;-62
2022/10/03 07:23:28;;;;;;;6.90;5.30;;;24.20;8.10;;;;;;5034016;28;20812;-63
2022/10/03 07:26:43;;;;;;;6.13;4.70;;;25.40;6.10;;;;;;5046014;28;20482;-63
2022/10/03 07:29:23;;;;;;;8.20;5.80;;;26.40;4.20;;;;;;5019549;28;20478;-63
2022/10/03 07:32:28;;;;;;;8.20;5.17;;;27.60;2.90;;;;;;5040367;28;20478;-62
2022/10/03 07:35:16;;;;;;;8.40;5.47;;;28.60;1.20;;;;;;4957634;28;20469;-67
2022/10/03 07:41:28;;;;;;;17.23;13.37;;;29.10;1.00;;;;;;5035316;28;20515;-68
2022/10/03 07:44:17;;;;;;;7.67;4.67;;;27.70;1.00;;;;;;5037161;28;20463;-69
2022/10/03 07:47:16;;;;;;;6.87;5.37;;;27.00;1.80;;;;;;5022950;28;20478;-66
2022/10/03 07:50:25;;;;;;;7.50;4.27;;;26.40;2.20;;;;;;5035151;28;20481;-66
2022/10/03 07:53:14;;;;;;;6.60;4.70;;;25.80;2.90;;;;;;5044451;28;20461;-64
2022/10/03 07:56:06;;;;;;;7.13;5.40;;;25.80;3.50;;;;;;5038435;28;20474;-64
2022/10/03 07:58:54;;;;;;;6.57;4.90;;;25.20;4.20;;;;;;5041573;28;20454;-67
2022/10/03 08:01:42;;;;;;;7.77;5.90;;;24.60;5.20;;;;;;5046892;28;20505;-65
2022/10/03 08:04:52;;;;;;;8.00;6.47;;;24.70;5.40;;;;;;5048037;28;20457;-63
2022/10/03 08:07:36;;;;;;;6.80;5.20;;;24.70;5.10;;;;;;5039492;28;20466;-63
2022/10/03 08:10:16;;;;;;;6.80;5.00;;;25.80;3.90;;;;;;5040913;28;20488;-62
2022/10/03 08:13:12;;;;;;;6.17;4.40;;;26.20;3.10;;;;;;5047699;28;20481;-66
2022/10/03 08:15:53;;;;;;;6.47;4.40;;;26.30;3.70;;;;;;5041928;28;20466;-67
2022/10/03 08:18:46;;;;;;;7.03;4.57;;;28.60;1.00;;;;;;5037737;28;20462;-67
2022/10/03 08:21:20;;;;;;;9.93;4.93;;;30.70;1.00;;;;;;5046944;28;20485;-68
2022/10/03 08:24:29;;;;;;;5.90;4.00;;;32.40;1.00;;;;;;5044979;28;20467;-65
2022/10/03 08:27:23;;;;;;;7.50;5.70;;;34.00;1.00;;;;;;5019565;28;20490;-69
2022/10/03 08:30:22;;;;;;;9.00;4.87;;;35.10;1.00;;;;;;5035831;28;20470;-68
2022/10/03 08:32:59;;;;;;;6.30;4.73;;;35.10;1.00;;;;;;5044883;28;20466;-66
2022/10/03 08:35:54;;;;;;;7.07;4.53;;;35.90;1.00;;;;;;5044225;28;20457;-64
2022/10/03 08:38:38;;;;;;;6.53;4.23;;;36.70;1.00;;;;;;5041652;28;20465;-65
2022/10/03 08:41:53;;;;;;;7.70;4.43;;;37.50;1.00;;;;;;5042722;28;20458;-65
2022/10/03 08:44:46;;;;;;;6.70;4.20;;;38.00;1.00;;;;;;5009976;28;20461;-67
2022/10/03 08:47:40;;;;;;;6.10;4.30;;;38.70;1.00;;;;;;5039999;28;21005;-64
2022/10/03 08:50:35;;;;;;;15.57;13.90;;;39.40;1.00;;;;;;5042553;28;20575;-64
2022/10/03 08:53:49;;;;;;;6.27;4.47;;;40.20;1.00;;;;;;5043910;28;20466;-65
2022/10/03 08:56:21;;;;;;;7.70;4.60;;;41.00;1.00;;;;;;5039980;28;20466;-67
2022/10/03 08:59:23;;;;;;;6.57;3.83;;;41.40;1.00;;;;;;5042936;28;20483;-63
2022/10/03 09:02:22;;;;;;;9.60;4.33;;;41.60;1.00;;;;;;5009549;28;21202;-64
2022/10/03 09:05:10;;;;;;;6.47;4.20;;;40.80;1.00;;;;;;4996550;28;20463;-66
2022/10/03 09:08:17;;;;;;;16.73;4.13;;;40.10;1.00;;;;;;5043733;28;20474;-68
2022/10/03 09:11:20;;;;;;;7.90;4.93;;;41.00;1.00;;;;;;5038246;28;20462;-66
2022/10/03 09:14:20;;;;;;;6.93;4.80;;;41.50;1.00;;;;;;5023531;28;20464;-66
2022/10/03 09:17:12;;;;;;;8.07;4.10;;;41.70;1.00;;;;;;5045237;28;20469;-66
2022/10/03 09:20:06;;;;;;;8.00;4.17;;;41.80;1.00;;;;;;5041471;28;20479;-65
2022/10/03 09:22:58;;;;;;;6.60;4.80;;;42.40;1.00;;;;;;5037717;28;20484;-65
2022/10/03 09:25:41;;;;;;;6.00;4.70;;;42.80;1.00;;;;;;5033010;28;20454;-62
2022/10/03 09:28:37;;;;;;;7.13;4.30;;;43.30;1.00;;;;;;5046705;28;21192;-63
2022/10/03 09:31:24;;;;;;;8.10;4.60;;;43.70;1.00;;;;;;5044378;28;20481;-62
2022/10/03 09:34:12;;;;;;;6.40;4.33;;;44.40;1.00;;;;;;5045166;28;20457;-62
2022/10/03 09:37:20;;;;;;;7.27;4.13;;;44.90;1.00;;;;;;5045003;28;20460;-64
2022/10/03 09:40:16;;;;;;;6.97;4.30;;;44.40;1.00;;;;;;5041620;28;21025;-62
2022/10/03 09:43:28;;;;;;;5.87;3.37;;;44.80;1.00;;;;;;5050038;28;20469;-62
2022/10/03 09:46:13;;;;;;;6.30;4.07;;;44.80;1.00;;;;;;5042921;28;20479;-62
2022/10/03 09:49:24;;;;;;;6.33;3.40;;;45.30;1.00;;;;;;5044306;28;20497;-63
2022/10/03 09:52:08;;;;;;;6.43;3.17;;;45.70;1.00;;;;;;5045039;28;20958;-62
2022/10/03 09:54:57;;;;;;;6.13;3.80;;;45.70;1.00;;;;;;5045445;28;20466;-63
2022/10/03 09:57:53;;;;;;;6.90;3.90;;;46.00;1.00;;;;;;5042321;28;20465;-62
2022/10/03 10:00:22;;;;;;;7.20;3.70;;;45.90;1.00;;;;;;5045023;28;20477;-63
2022/10/03 10:03:24;;;;;;;4.70;3.30;;;45.40;1.00;;;;;;5044080;28;20461;-63
2022/10/03 10:06:12;;;;;;;5.93;3.77;;;45.40;1.00;;;;;;5041234;28;20461;-62
2022/10/03 10:09:06;;;;;;;6.67;3.47;;;45.00;1.00;;;;;;5042880;28;20498;-62
2022/10/03 10:12:02;;;;;;;5.20;3.30;;;45.00;1.00;;;;;;5040004;28;20457;-61
2022/10/03 10:14:48;;;;;;;6.07;3.27;;;45.70;1.00;;;;;;5044372;28;20988;-63
2022/10/03 10:18:06;;;;;;;6.80;3.43;;;44.10;1.00;;;;;;5045201;28;20840;-63
2022/10/03 10:21:23;;;;;;;5.93;3.40;;;40.70;1.00;;;;;;5043103;28;20482;-63
2022/10/03 10:24:03;;;;;;;5.60;3.23;;;39.70;1.00;;;;;;5044117;28;20457;-63
2022/10/03 10:27:12;;;;;;;7.83;3.90;;;41.00;1.00;;;;;;5041702;28;20567;-62
2022/10/03 10:30:04;;;;;;;7.60;5.00;;;41.50;1.00;;;;;;5035763;28;22649;-62
2022/10/03 10:33:08;;;;;;;14.83;8.10;;;41.80;1.00;;;;;;5043684;28;20479;-62
2022/10/03 10:36:22;;;;;;;13.77;10.43;;;41.80;1.00;;;;;;5006391;28;20450;-62
2022/10/03 10:39:24;;;;;;;6.57;3.83;;;41.50;1.00;;;;;;5041046;28;20862;-62
2022/10/03 10:42:24;;;;;;;7.67;4.00;;;40.70;1.00;;;;;;5042099;28;20976;-60
2022/10/03 10:45:38;;;;;;;9.57;4.73;;;40.40;1.00;;;;;;5039406;28;20974;-61
2022/10/03 10:48:40;;;;;;;7.00;3.27;;;40.00;1.00;;;;;;5026937;28;21041;-61
2022/10/03 10:51:41;;;;;;;5.87;3.40;;;39.80;1.00;;;;;;5038810;28;20829;-61
2022/10/03 10:54:48;;;;;;;6.13;4.00;;;39.60;1.00;;;;;;5040305;28;21032;-61
2022/10/03 10:57:58;;;;;;;6.47;3.60;;;39.40;1.00;;;;;;5040141;28;20450;-61
2022/10/03 11:00:39;;;;;;;5.73;3.40;;;37.10;1.00;;;;;;5038738;28;20478;-61
2022/10/03 11:03:54;;;;;;;5.50;3.20;;;35.30;1.00;;;;;;5036581;28;20461;-60
2022/10/03 11:07:04;;;;;;;7.30;4.40;;;33.40;1.00;;;;;;5036555;28;20462;-62
2022/10/03 11:10:21;;;;;;;13.90;10.33;;;31.40;1.00;;;;;;5032309;28;20510;-61
2022/10/03 11:13:29;;;;;;;6.20;3.60;;;29.60;1.00;;;;;;5044332;28;20456;-63
2022/10/03 11:16:41;;;;;;;7.13;4.20;;;28.00;1.00;;;;;;5036376;28;20819;-61
2022/10/03 11:19:50;;;;;;;13.60;4.37;;;26.70;1.00;;;;;;5035360;28;20481;-62
2022/10/03 11:22:54;;;;;;;8.10;4.60;;;25.60;1.00;;;;;;5042817;28;20481;-60
2022/10/03 11:25:54;;;;;;;6.60;3.63;;;24.80;2.00;;;;;;5037294;28;20474;-60
2022/10/03 11:29:25;;;;;;;9.97;4.30;;;24.20;3.50;;;;;;5039082;28;20477;-60
2022/10/03 11:32:30;;;;;;;6.70;3.30;;;24.50;3.30;;;;;;4977930;28;20740;-61
2022/10/03 11:35:30;;;;;;;7.77;3.37;;;24.20;1.80;;;;;;5044452;28;20454;-61
2022/10/03 11:38:07;;;;;;;6.60;3.70;;;23.90;2.50;;;;;;5043494;28;20454;-61
2022/10/03 11:40:49;;;;;;;6.30;2.80;;;24.10;2.10;;;;;;5038668;28;20494;-60
2022/10/03 11:43:56;;;;;;;24.90;14.20;;;24.50;1.00;;;;;;5041633;28;20496;-60
2022/10/03 11:46:34;;;;;;;5.20;2.87;;;24.80;1.90;;;;;;5039125;28;20516;-61
2022/10/03 11:49:07;;;;;;;8.27;2.87;;;24.90;1.00;;;;;;5043946;28;20492;-61
2022/10/03 11:51:43;;;;;;;5.87;2.90;;;24.70;1.00;;;;;;5038593;28;21296;-61
2022/10/03 11:54:22;;;;;;;8.40;2.97;;;24.40;1.00;;;;;;5044500;28;20984;-61
2022/10/03 11:56:51;;;;;;;8.80;2.80;;;24.10;1.70;;;;;;5038197;28;20478;-61
2022/10/03 11:59:40;;;;;;;6.00;3.00;;;23.90;2.90;;;;;;5037781;28;20514;-61
2022/10/03 12:02:14;;;;;;;7.63;2.80;;;23.90;3.00;;;;;;5038308;28;20509;-61
2022/10/03 12:04:52;;;;;;;5.73;2.83;;;23.60;2.30;;;;;;5040403;28;20461;-61
2022/10/03 12:10:38;;;;;;;9.00;2.80;;;22.90;5.20;;;;;;5037768;28;21503;-61
2022/10/03 12:13:09;;;;;;;8.73;3.57;;;22.80;4.90;;;;;;5039316;28;20467;-61
2022/10/03 12:15:42;;;;;;;8.00;2.97;;;22.80;4.20;;;;;;5043502;28;20458;-61
2022/10/03 12:18:16;;;;;;;5.40;2.37;;;22.90;4.60;;;;;;5036260;28;20962;-61
2022/10/03 12:21:06;;;;;;;4.70;2.10;;;22.90;4.30;;;;;;5039565;28;20460;-62
2022/10/03 12:23:51;;;;;;;4.43;2.00;;;22.90;4.30;;;;;;5034835;28;20528;-61
2022/10/03 12:26:28;;;;;;;5.30;2.33;;;22.80;2.40;;;;;;5038252;28;20462;-61
2022/10/03 12:28:56;;;;;;;5.73;2.97;;;22.80;3.00;;;;;;5042321;28;20547;-61
2022/10/03 12:31:31;;;;;;;12.23;8.33;;;22.70;2.70;;;;;;5040416;28;20828;-61
2022/10/03 12:34:05;;;;;;;4.70;2.13;;;22.70;4.30;;;;;;5049465;28;20548;-60
2022/10/03 12:36:46;;;;;;;6.27;2.90;;;22.80;4.60;;;;;;5033805;28;20458;-61
2022/10/03 12:39:27;;;;;;;6.43;3.23;;;22.90;4.90;;;;;;5041442;28;20482;-61
2022/10/03 12:42:13;;;;;;;6.93;2.60;;;22.80;4.10;;;;;;5042980;28;20472;-61
2022/10/03 12:44:49;;;;;;;6.33;2.90;;;22.60;4.50;;;;;;5047561;28;20454;-60
2022/10/03 12:47:29;;;;;;;6.63;3.10;;;22.40;4.60;;;;;;5043548;28;20462;-61
2022/10/03 12:50:02;;;;;;;8.47;3.30;;;22.20;5.00;;;;;;5042787;28;20479;-61
2022/10/03 12:52:33;;;;;;;5.90;2.57;;;22.00;5.50;;;;;;5038031;28;20466;-61
2022/10/03 12:55:23;;;;;;;6.63;2.90;;;21.80;5.80;;;;;;5044924;28;20473;-60
2022/10/03 12:58:01;;;;;;;6.20;2.83;;;21.70;6.30;;;;;;5045843;28;20489;-60
2022/10/03 13:00:33;;;;;;;4.73;2.53;;;21.50;6.50;;;;;;5038530;28;20573;-61
2022/10/03 13:03:27;;;;;;;7.03;3.27;;;21.40;6.00;;;;;;5041240;28;20819;-61
2022/10/03 13:06:17;;;;;;;7.07;2.77;;;21.20;5.80;;;;;;5040086;28;20459;-60
2022/10/03 13:08:55;;;;;;;9.00;2.77;;;20.90;6.10;;;;;;5043979;28;20485;-61
2022/10/03 13:11:32;;;;;;;8.27;4.77;;;20.70;6.10;;;;;;5043180;28;20465;-61
2022/10/03 13:14:21;;;;;;;5.80;2.73;;;20.40;7.20;;;;;;5038063;28;20532;-61
2022/10/03 13:16:59;;;;;;;5.20;2.30;;;20.30;8.50;;;;;;5043127;28;20466;-61
2022/10/03 13:19:33;;;;;;;8.50;3.00;;;20.30;8.30;;;;;;5039538;28;20482;-60
2022/10/03 13:22:11;;;;;;;8.10;3.53;;;20.30;8.30;;;;;;5042177;28;20470;-60
2022/10/03 13:24:43;;;;;;;6.80;2.80;;;20.30;9.10;;;;;;5045056;28;20465;-60
2022/10/03 13:27:31;;;;;;;7.30;2.70;;;20.30;9.30;;;;;;5034478;28;20462;-60
2022/10/03 13:30:05;;;;;;;6.57;4.07;;;20.30;9.00;;;;;;5032073;28;20474;-60
2022/10/03 13:32:34;;;;;;;8.43;3.90;;;20.30;9.40;;;;;;5045296;28;20474;-60
2022/10/03 13:38:35;;;;;;;5.83;3.00;;;20.40;9.30;;;;;;5030777;28;20541;-60
2022/10/03 13:41:14;;;;;;;6.80;2.73;;;20.30;9.20;;;;;;5035103;28;20850;-60
2022/10/03 13:43:48;;;;;;;9.90;4.77;;;20.30;9.20;;;;;;5043701;28;20474;-59
2022/10/03 13:46:21;;;;;;;7.10;3.83;;;20.30;9.40;;;;;;5035822;28;20545;-60
2022/10/03 13:48:53;;;;;;;268.70;156.93;;;20.30;9.70;;;;;;5042177;28;20478;-59
2022/10/03 13:51:33;;;;;;;11.83;6.00;;;20.30;9.80;;;;;;5039263;28;20850;-60
2022/10/03 13:54:05;;;;;;;6.03;2.90;;;20.20;9.60;;;;;;5043030;28;21018;-60
2022/10/03 13:56:50;;;;;;;7.03;2.77;;;20.10;9.60;;;;;;5040858;28;20469;-60
2022/10/03 13:59:34;;;;;;;6.93;3.53;;;20.10;9.60;;;;;;5042910;28;20496;-60
2022/10/03 14:02:15;;;;;;;8.27;4.47;;;20.00;9.70;;;;;;5041784;28;20485;-60
2022/10/03 14:04:58;;;;;;;8.20;3.20;;;19.80;10.40;;;;;;5043400;28;20466;-60
2022/10/03 14:07:40;;;;;;;5.27;2.83;;;19.60;10.70;;;;;;5039736;28;20457;-60
2022/10/03 14:10:20;;;;;;;8.73;4.40;;;19.50;10.90;;;;;;5031423;28;20466;-60
2022/10/03 14:13:01;;;;;;;36.63;21.43;;;19.40;11.70;;;;;;5032026;28;20989;-60
2022/10/03 14:15:41;;;;;;;33.30;22.70;;;19.20;12.30;;;;;;5039518;28;20458;-60
2022/10/03 14:18:22;;;;;;;10.90;3.60;;;19.10;12.80;;;;;;5042392;28;20454;-60
2022/10/03 14:21:29;;;;;;;8.03;3.80;;;19.10;13.10;;;;;;5036490;28;20490;-60
2022/10/03 14:24:04;;;;;;;10.10;3.97;;;19.00;13.00;;;;;;5027101;28;20929;-60
2022/10/03 14:26:36;;;;;;;7.97;3.23;;;18.90;13.20;;;;;;5038483;28;20973;-61
2022/10/03 14:29:13;;;;;;;5.13;2.80;;;18.80;13.80;;;;;;5030934;28;20546;-61
2022/10/03 14:31:47;;;;;;;8.63;3.77;;;18.80;14.90;;;;;;5043149;28;21053;-60
2022/10/03 14:34:34;;;;;;;9.67;3.37;;;18.80;15.30;;;;;;5038735;28;20998;-60
2022/10/03 14:37:08;;;;;;;8.67;3.17;;;18.80;14.90;;;;;;5040782;28;20470;-60
2022/10/03 14:39:43;;;;;;;9.37;3.60;;;18.70;14.70;;;;;;5045827;28;20477;-60
2022/10/03 14:42:48;;;;;;;10.00;3.90;;;18.70;15.20;;;;;;5041012;28;20473;-60
2022/10/03 14:45:18;;;;;;;7.43;3.80;;;18.60;14.80;;;;;;5029375;28;20449;-60
2022/10/03 14:47:50;;;;;;;7.87;3.40;;;18.60;14.80;;;;;;5037841;28;20459;-60
2022/10/03 14:50:20;;;;;;;11.47;4.90;;;18.50;14.50;;;;;;5034649;28;20483;-60